Terminal Aerodrome Forecast
Issued by NWS Caribou, ME

Home | Current Version | Previous Version | Text Only | Print | Product List | Glossary On
Versions: 1 2 3 4 5 6 7 8 9 10 11 12 13 14 15 16 17 18 19 20 21 22 23 24 25 26
000
FTUS41 KCAR 022337
TAFCAR
TAF
KCAR 022337Z 0300/0324 VRB03KT 3SM BR SCT004 OVC012
      TEMPO 0300/0304 1SM -SHSN BR OVC002
     FM030400 04004KT 5SM -SHSN OVC010
     FM030800 02005KT P6SM VCSH OVC010
     FM031200 34006KT P6SM OVC015
     FM031800 34008KT P6SM OVC020=

USA.gov is the U.S. government's official web portal to all federal, state and local government web resources and services.